ADDS METAR Data INFO
IDs: Format: Raw Decoded Include TAF

Data at: 2159 UTC 24 Feb 2018

PARS 242156Z AUTO VRB04KT 10SM FEW017 M07/M10 A2983 RMK AO2 SNE19 SLP106 P0000 T10671100 FZRANO $
PARS 242056Z AUTO 00000KT 6SM -SN OVC015 M06/M09 A2980 RMK AO2 SLP094 P0000 60000 T10611089 51044 FZRANO $
PARS 242045Z AUTO 00000KT 4SM -SN BKN015 OVC044 M06/M09 A2979 RMK AO2 P0000 FZRANO $
PARS 241911Z AUTO 34004KT 5SM -SN BR FEW019 OVC043 M08/M10 A2973 RMK AO2 P0000 FZRANO $
PARS 241856Z AUTO 32003KT 2SM -SN BR FEW019 SCT027 OVC041 M08/M11 A2972 RMK AO2 VIS 1 1/4V5 SLP068 P0000 T10831106 FZRANO $
PARS 241832Z AUTO 32004KT 5SM -SN BR FEW029 OVC043 M09/M11 A2970 RMK AO2 P0000 FZRANO $
PARS 241804Z AUTO VRB03KT 9SM -SN BKN029 OVC043 M09/M11 A2968 RMK AO2 P0000 FZRANO $
PARS 241756Z AUTO 01004KT 6SM -SN BR FEW021 SCT029 OVC043 M09/M11 A2967 RMK AO2 SLP050 P0000 60002 T10941106 11061 21094 51023 FZRANO $
PARS 241753Z AUTO 34004KT 6SM -SN BR SCT021 SCT029 OVC043 M09/M11 A2966 RMK AO2 P0000 FZRANO $
PARS 241719Z AUTO 33006KT 9SM -SN FEW011 BKN023 M09/M10 A2964 RMK AO2 P0000 FZRANO $
PARS 241656Z AUTO 00000KT 9SM -SN SCT011 M09/M11 A2962 RMK AO2 SLP035 P0001 T10941111 FZRANO $
PARS 241650Z AUTO 00000KT 9SM -SN BKN011 BKN018 M09/M11 A2962 RMK AO2 P0001 FZRANO $
PARS 241646Z AUTO 00000KT 9SM -SN SCT013 SCT020 M09/M11 A2962 RMK AO2 P0001 FZRANO $
PARS 241556Z AUTO 00000KT 2SM -SN BR OVC020 M07/M08 A2960 RMK AO2 SLP026 P0000 T10721083 FZRANO $
PARS 241539Z AUTO 00000KT 1 1/2SM -SN BR OVC018 M07/M08 A2959 RMK AO2 P0000 FZRANO $
PARS 241529Z AUTO 00000KT 2SM -SN BR OVC018 M07/M08 A2959 RMK AO2 P0000 FZRANO $
PARS 241456Z AUTO 00000KT 9SM -SN OVC018 M07/M08 A2958 RMK AO2 SLP021 P0000 60001 T10671083 53012 FZRANO $
PARS 241356Z AUTO 00000KT 4SM -SN BR OVC018 M06/M08 A2957 RMK AO2 SLP017 P0001 T10611078 FZRANO $
PARS 241256Z AUTO 03003KT 3SM -SN BR OVC020 M06/M08 A2955 RMK AO2 SLP012 P0000 T10611078 FZRANO $
PARS 241156Z AUTO 00000KT 5SM -SN BR OVC026 M06/M08 A2954 RMK AO2 SLP009 P0000 60000 T10611078 11056 21061 53017 FZRANO $
PARS 241142Z AUTO 00000KT 5SM -SN BR BKN026 BKN033 OVC047 M06/M08 A2954 RMK AO2 P0000 FZRANO $
PARS 241128Z AUTO VRB03KT 5SM -SN BR FEW017 BKN033 OVC048 M06/M08 A2953 RMK AO2 P0000 FZRANO $
PARS 241056Z AUTO 02003KT 9SM -SN OVC017 M06/M07 A2952 RMK AO2 SLP001 P0000 T10611072 FZRANO $
PARS 241019Z AUTO 04008KT 8SM -SN SCT012 OVC017 M06/M07 A2951 RMK AO2 P0000 FZRANO $
PARS 240956Z AUTO 04007KT 7SM -SN BKN012 OVC017 M06/M07 A2951 RMK AO2 SLP998 P0000 T10611072 FZRANO $
PARS 240908Z AUTO 04008KT 8SM -SN BKN010 OVC018 M06/M07 A2950 RMK AO2 P0000 FZRANO $
PARS 240856Z AUTO 04008G14KT 8SM -SN SCT010 OVC018 M06/M07 A2949 RMK AO2 SLP992 P0000 60000 T10561072 56036 FZRANO $
PARS 240846Z AUTO 05010G15KT 5SM -SN BR SCT012 OVC018 M06/M07 A2949 RMK AO2 P0000 FZRANO $
PARS 240809Z AUTO 05010G15KT 3SM -SN BR BKN010 OVC021 M06/M07 A2950 RMK AO2 CIG 009V013 P0000 FZRANO $
PARS 240756Z AUTO 06010G15KT 4SM -SN BR SCT010 OVC023 M06/M07 A2950 RMK AO2 SLP995 P0000 T10561067 410391078 FZRANO $
PARS 240739Z AUTO 06009G16KT 2 1/2SM -SN BR SCT010 OVC025 M06/M07 A2952 RMK AO2 P0000 FZRANO $
PARS 240730Z AUTO 07010G16KT 3SM -SN BR SCT010 OVC025 M06/M07 A2952 RMK AO2 P0000 FZRANO $
PARS 240656Z AUTO 07007G14KT 5SM -SN BR BKN010 OVC019 M06/M07 A2955 RMK AO2 CIG 008V013 SLP011 P0000 T10561067 FZRANO $
PARS 240622Z AUTO 07008KT 5SM -SN BR OVC010 M06/M07 A2957 RMK AO2 CIG 007V013 P0000 FZRANO $
PARS 240556Z AUTO 07008G15KT 2 1/2SM -SN BR BKN010 OVC016 M05/M07 A2960 RMK AO2 SLP027 P0000 60000 T10501067 11039 21050 56033 FZRANO $
PARS 240551Z AUTO 08009KT 2 1/2SM -SN BR OVC010 M05/M07 A2960 RMK AO2 P0000 FZRANO $
PARS 240530Z AUTO 08010KT 3SM -SN BR OVC010 M05/M07 A2962 RMK AO2 CIG 007V014 P0000 FZRANO $
PARS 240523Z AUTO 07009G14KT 2 1/2SM -SN BR OVC010 M05/M07 A2963 RMK AO2 CIG 007V014 P0000 FZRANO $
PARS 240516Z AUTO 08009G14KT 3SM -SN BR BKN010 OVC016 M05/M07 A2963 RMK AO2 CIG 007V012 P0000 FZRANO $
PARS 240456Z AUTO 07008G14KT 5SM -SN BR FEW008 OVC016 M05/M07 A2965 RMK AO2 SLP044 P0000 T10501067 FZRANO $
PARS 240434Z AUTO 06010G14KT 3SM -SN BR SCT008 OVC023 M05/M07 A2967 RMK AO2 P0000 FZRANO $
PARS 240423Z AUTO 07007KT 2 1/2SM -SN BR FEW008 BKN014 OVC023 M05/M07 A2967 RMK AO2 P0000 FZRANO $
PARS 240410Z AUTO 06009KT 1 1/4SM -SN BR FEW008 BKN014 OVC021 M05/M07 A2968 RMK AO2 P0000 FZRANO $
PARS 240356Z AUTO 07006KT 1 1/2SM -SN BR BKN014 OVC020 M05/M07 A2970 RMK AO2 SLP061 P0000 T10501067 FZRANO $
PARS 240324Z AUTO 07006KT 2SM -SN OVC021 M04/M07 A2972 RMK AO2 VIS 1 1/4V3 P0000 FZRANO $
PARS 240311Z AUTO 07008G16KT 5SM -SN BKN023 OVC042 M04/M08 A2972 RMK AO2 P0000 FZRANO $
PARS 240256Z AUTO 06009G16KT 10SM -SN FEW025 SCT035 OVC044 M04/M08 A2973 RMK AO2 SNB56 SLP073 P0000 60000 T10441078 56058 FZRANO $
PARS 240156Z AUTO 06011G16KT 10SM OVC060 M04/M08 A2978 RMK AO2 SLP089 T10391078 FZRANO $
PARS 240056Z AUTO 06009KT 10SM OVC065 M04/M08 A2985 RMK AO2 SLP113 T10441078 FZRANO $
PARS 232356Z AUTO 06006KT 10SM OVC085 M04/M08 A2990 RMK AO2 SLP131 T10441078 11044 21078 56064 FZRANO $
PARS 232256Z AUTO 05010KT 10SM OVC085 M04/M08 A2996 RMK AO2 PRESFR SLP149 T10441078 FZRANO $
PARS 232156Z AUTO 06009KT 10SM SCT018 OVC090 M05/M08 A3003 RMK AO2 PRESFR SLP173 T10501083 FZRANO $
PARS 232056Z AUTO 08008KT 10SM OVC020 M05/M08 A3009 RMK AO2 SLP195 T10501078 58046 FZRANO $
PARS 231956Z AUTO 08004KT 10SM OVC022 M06/M07 A3015 RMK AO2 SLP214 T10561072 FZRANO $
PARS 231856Z AUTO 00000KT 10SM BKN024 OVC032 M07/M09 A3019 RMK AO2 SLP228 T10721089 FZRANO $
PARS 231849Z AUTO 00000KT 10SM BKN024 OVC032 M08/M09 A3019 RMK AO2 FZRANO $
PARS 231756Z AUTO 00000KT 8SM OVC030 M08/M09 A3023 RMK AO2 SLP241 60000 T10781094 11056 21078 56033 FZRANO $
PARS 231656Z AUTO 00000KT 10SM SCT025 M07/M08 A3026 RMK AO2 SLP250 T10671083 FZRANO $
PARS 231556Z AUTO 00000KT 10SM OVC025 M06/M08 A3029 RMK AO2 SNE05B30E40 SLP263 P0000 T10611083 FZRANO $
PARS 231456Z AUTO 23003KT 10SM -SN OVC027 M06/M07 A3033 RMK AO2 SLP274 P0000 60000 T10611072 58024 FZRANO $
PARS 231356Z AUTO 00000KT 8SM -SN OVC029 M06/M07 A3035 RMK AO2 SLP283 P0000 T10611072 FZRANO $
PARS 231256Z AUTO 00000KT 7SM -SN OVC029 M06/M07 A3038 RMK AO2 SLP291 P0000 T10561072 FZRANO $
PARS 231156Z AUTO 25005KT 9SM -SN OVC029 M06/M07 A3040 RMK AO2 SLP298 P0000 60000 70001 T10561067 11050 21067 58003 FZRANO $
PARS 231152Z AUTO 25004KT 9SM -SN OVC029 M06/M07 A3040 RMK AO2 P0000 FZRANO $
PARS 231056Z AUTO 25005KT 8SM -SN FEW010 OVC035 M06/M07 A3041 RMK AO2 SLP301 P0000 T10561067 FZRANO $